sensor_id;sensor_type;location;lat;lon;timestamp;temperature;humidity
79494;SHT31;68951;53.130;18.104;2023-09-12T00:00:06;17.47;69.47
79494;SHT31;68951;53.130;18.104;2023-09-12T00:02:53;17.47;69.52
79494;SHT31;68951;53.130;18.104;2023-09-12T00:05:20;17.46;69.60
79494;SHT31;68951;53.130;18.104;2023-09-12T00:07:47;17.48;69.66
79494;SHT31;68951;53.130;18.104;2023-09-12T00:10:14;17.47;69.71
79494;SHT31;68951;53.130;18.104;2023-09-12T00:12:40;17.47;69.73
79494;SHT31;68951;53.130;18.104;2023-09-12T00:15:07;17.45;69.79
79494;SHT31;68951;53.130;18.104;2023-09-12T00:17:35;17.41;69.81
79494;SHT31;68951;53.130;18.104;2023-09-12T00:20:02;17.36;69.86
79494;SHT31;68951;53.130;18.104;2023-09-12T00:22:30;17.35;69.90
79494;SHT31;68951;53.130;18.104;2023-09-12T00:24:57;17.33;69.91
79494;SHT31;68951;53.130;18.104;2023-09-12T00:27:24;17.33;70.00
79494;SHT31;68951;53.130;18.104;2023-09-12T00:29:51;17.34;70.00
79494;SHT31;68951;53.130;18.104;2023-09-12T00:32:17;17.35;70.02
79494;SHT31;68951;53.130;18.104;2023-09-12T00:34:44;17.32;70.08
79494;SHT31;68951;53.130;18.104;2023-09-12T00:37:11;17.30;70.10
79494;SHT31;68951;53.130;18.104;2023-09-12T00:39:38;17.29;70.16
79494;SHT31;68951;53.130;18.104;2023-09-12T00:42:05;17.25;70.20
79494;SHT31;68951;53.130;18.104;2023-09-12T00:44:33;17.25;70.22
79494;SHT31;68951;53.130;18.104;2023-09-12T00:47:01;17.24;70.28
79494;SHT31;68951;53.130;18.104;2023-09-12T00:49:29;17.23;70.30
79494;SHT31;68951;53.130;18.104;2023-09-12T00:51:56;17.24;70.39
79494;SHT31;68951;53.130;18.104;2023-09-12T00:54:25;17.22;70.40
79494;SHT31;68951;53.130;18.104;2023-09-12T00:56:52;17.19;70.47
79494;SHT31;68951;53.130;18.104;2023-09-12T00:59:19;17.18;70.53
79494;SHT31;68951;53.130;18.104;2023-09-12T01:01:46;17.14;70.60
79494;SHT31;68951;53.130;18.104;2023-09-12T01:04:14;17.11;70.64
79494;SHT31;68951;53.130;18.104;2023-09-12T01:06:41;17.09;70.72
79494;SHT31;68951;53.130;18.104;2023-09-12T01:09:09;17.13;70.79
79494;SHT31;68951;53.130;18.104;2023-09-12T01:11:36;17.14;70.80
79494;SHT31;68951;53.130;18.104;2023-09-12T01:14:03;17.12;70.81
79494;SHT31;68951;53.130;18.104;2023-09-12T01:16:30;17.11;70.80
79494;SHT31;68951;53.130;18.104;2023-09-12T01:18:57;17.08;70.83
79494;SHT31;68951;53.130;18.104;2023-09-12T01:21:38;17.06;70.90
79494;SHT31;68951;53.130;18.104;2023-09-12T01:27:34;17.08;70.96
79494;SHT31;68951;53.130;18.104;2023-09-12T01:30:05;17.07;70.95
79494;SHT31;68951;53.130;18.104;2023-09-12T01:32:34;17.03;70.90
79494;SHT31;68951;53.130;18.104;2023-09-12T01:35:02;17.00;70.90
79494;SHT31;68951;53.130;18.104;2023-09-12T01:37:32;16.94;70.92
79494;SHT31;68951;53.130;18.104;2023-09-12T01:39:59;16.90;70.93
79494;SHT31;68951;53.130;18.104;2023-09-12T01:42:35;16.86;70.90
79494;SHT31;68951;53.130;18.104;2023-09-12T01:45:09;16.84;70.96
79494;SHT31;68951;53.130;18.104;2023-09-12T01:47:45;16.84;71.00
79494;SHT31;68951;53.130;18.104;2023-09-12T01:50:14;16.83;71.00
79494;SHT31;68951;53.130;18.104;2023-09-12T01:52:43;16.83;71.00
79494;SHT31;68951;53.130;18.104;2023-09-12T01:55:10;16.78;71.00
79494;SHT31;68951;53.130;18.104;2023-09-12T01:57:38;16.76;71.03
79494;SHT31;68951;53.130;18.104;2023-09-12T02:00:05;16.74;71.10
79494;SHT31;68951;53.130;18.104;2023-09-12T02:02:33;16.72;71.10
79494;SHT31;68951;53.130;18.104;2023-09-12T02:05:06;16.71;71.12
79494;SHT31;68951;53.130;18.104;2023-09-12T02:07:41;16.69;71.15
79494;SHT31;68951;53.130;18.104;2023-09-12T02:10:08;16.67;71.20
79494;SHT31;68951;53.130;18.104;2023-09-12T02:12:39;16.66;71.20
79494;SHT31;68951;53.130;18.104;2023-09-12T02:15:07;16.64;71.29
79494;SHT31;68951;53.130;18.104;2023-09-12T02:17:34;16.61;71.35
79494;SHT31;68951;53.130;18.104;2023-09-12T02:20:01;16.62;71.39
79494;SHT31;68951;53.130;18.104;2023-09-12T02:22:30;16.62;71.40
79494;SHT31;68951;53.130;18.104;2023-09-12T02:24:57;16.58;71.41
79494;SHT31;68951;53.130;18.104;2023-09-12T02:27:24;16.56;71.48
79494;SHT31;68951;53.130;18.104;2023-09-12T02:29:51;16.56;71.50
79494;SHT31;68951;53.130;18.104;2023-09-12T02:32:18;16.55;71.50
79494;SHT31;68951;53.130;18.104;2023-09-12T02:34:45;16.51;71.51
79494;SHT31;68951;53.130;18.104;2023-09-12T02:37:11;16.50;71.58
79494;SHT31;68951;53.130;18.104;2023-09-12T02:39:38;16.51;71.60
79494;SHT31;68951;53.130;18.104;2023-09-12T02:42:05;16.51;71.60
79494;SHT31;68951;53.130;18.104;2023-09-12T02:44:32;16.49;71.61
79494;SHT31;68951;53.130;18.104;2023-09-12T02:46:59;16.47;71.68
79494;SHT31;68951;53.130;18.104;2023-09-12T02:49:26;16.47;71.68
79494;SHT31;68951;53.130;18.104;2023-09-12T02:51:53;16.43;71.69
79494;SHT31;68951;53.130;18.104;2023-09-12T02:54:20;16.40;71.70
79494;SHT31;68951;53.130;18.104;2023-09-12T02:56:46;16.42;71.72
79494;SHT31;68951;53.130;18.104;2023-09-12T02:59:13;16.41;71.70
79494;SHT31;68951;53.130;18.104;2023-09-12T03:01:40;16.40;71.70
79494;SHT31;68951;53.130;18.104;2023-09-12T03:04:07;16.38;71.68
79494;SHT31;68951;53.130;18.104;2023-09-12T03:06:34;16.35;71.61
79494;SHT31;68951;53.130;18.104;2023-09-12T03:09:01;16.31;71.66
79494;SHT31;68951;53.130;18.104;2023-09-12T03:11:29;16.27;71.69
79494;SHT31;68951;53.130;18.104;2023-09-12T03:13:56;16.25;71.74
79494;SHT31;68951;53.130;18.104;2023-09-12T03:16:22;16.27;71.75
79494;SHT31;68951;53.130;18.104;2023-09-12T03:18:50;16.28;71.70
79494;SHT31;68951;53.130;18.104;2023-09-12T03:21:17;16.28;71.72
79494;SHT31;68951;53.130;18.104;2023-09-12T03:23:44;16.29;71.75
79494;SHT31;68951;53.130;18.104;2023-09-12T03:26:11;16.28;71.73
79494;SHT31;68951;53.130;18.104;2023-09-12T03:28:37;16.24;71.70
79494;SHT31;68951;53.130;18.104;2023-09-12T03:31:11;16.19;71.71
79494;SHT31;68951;53.130;18.104;2023-09-12T03:33:40;16.17;71.70
79494;SHT31;68951;53.130;18.104;2023-09-12T03:36:09;16.17;71.70
79494;SHT31;68951;53.130;18.104;2023-09-12T03:38:36;16.16;71.70
79494;SHT31;68951;53.130;18.104;2023-09-12T03:41:03;16.14;71.71
79494;SHT31;68951;53.130;18.104;2023-09-12T03:43:30;16.12;71.70
79494;SHT31;68951;53.130;18.104;2023-09-12T03:45:59;16.08;71.72
79494;SHT31;68951;53.130;18.104;2023-09-12T03:48:26;16.04;71.76
79494;SHT31;68951;53.130;18.104;2023-09-12T03:50:53;16.02;71.80
79494;SHT31;68951;53.130;18.104;2023-09-12T03:53:20;16.01;71.85
79494;SHT31;68951;53.130;18.104;2023-09-12T03:55:46;16.00;71.87
79494;SHT31;68951;53.130;18.104;2023-09-12T03:58:13;15.95;71.87
79494;SHT31;68951;53.130;18.104;2023-09-12T04:00:40;15.90;71.90
79494;SHT31;68951;53.130;18.104;2023-09-12T04:03:08;15.89;72.00
79494;SHT31;68951;53.130;18.104;2023-09-12T04:05:35;15.90;72.00
79494;SHT31;68951;53.130;18.104;2023-09-12T04:08:01;15.89;72.00
79494;SHT31;68951;53.130;18.104;2023-09-12T04:10:29;15.85;72.03
79494;SHT31;68951;53.130;18.104;2023-09-12T04:12:55;15.84;72.10
79494;SHT31;68951;53.130;18.104;2023-09-12T04:15:22;15.85;72.11
79494;SHT31;68951;53.130;18.104;2023-09-12T04:17:49;15.85;72.18
79494;SHT31;68951;53.130;18.104;2023-09-12T04:20:16;15.86;72.20
79494;SHT31;68951;53.130;18.104;2023-09-12T04:22:43;15.87;72.20
79494;SHT31;68951;53.130;18.104;2023-09-12T04:25:10;15.87;72.21
79494;SHT31;68951;53.130;18.104;2023-09-12T04:27:38;15.87;72.27
79494;SHT31;68951;53.130;18.104;2023-09-12T04:30:04;15.84;72.31
79494;SHT31;68951;53.130;18.104;2023-09-12T04:32:32;15.84;72.34
79494;SHT31;68951;53.130;18.104;2023-09-12T04:34:59;15.86;72.40
79494;SHT31;68951;53.130;18.104;2023-09-12T04:37:26;15.90;72.45
79494;SHT31;68951;53.130;18.104;2023-09-12T04:39:53;15.94;72.47
79494;SHT31;68951;53.130;18.104;2023-09-12T04:42:20;15.96;72.50
79494;SHT31;68951;53.130;18.104;2023-09-12T04:44:47;15.96;72.50
79494;SHT31;68951;53.130;18.104;2023-09-12T04:47:15;15.94;72.51
79494;SHT31;68951;53.130;18.104;2023-09-12T04:49:43;15.96;72.59
79494;SHT31;68951;53.130;18.104;2023-09-12T04:52:10;15.97;72.61
79494;SHT31;68951;53.130;18.104;2023-09-12T04:54:37;16.00;72.67
79494;SHT31;68951;53.130;18.104;2023-09-12T04:57:04;16.02;72.70
79494;SHT31;68951;53.130;18.104;2023-09-12T04:59:31;16.07;72.71
79494;SHT31;68951;53.130;18.104;2023-09-12T05:01:58;16.10;72.75
79494;SHT31;68951;53.130;18.104;2023-09-12T05:04:25;16.13;72.80
79494;SHT31;68951;53.130;18.104;2023-09-12T05:06:52;16.16;72.80
79494;SHT31;68951;53.130;18.104;2023-09-12T05:09:19;16.19;72.80
79494;SHT31;68951;53.130;18.104;2023-09-12T05:11:46;16.18;72.80
79494;SHT31;68951;53.130;18.104;2023-09-12T05:14:13;16.21;72.86
79494;SHT31;68951;53.130;18.104;2023-09-12T05:16:40;16.25;72.90
79494;SHT31;68951;53.130;18.104;2023-09-12T05:19:07;16.30;72.90
79494;SHT31;68951;53.130;18.104;2023-09-12T05:21:34;16.38;72.91
79494;SHT31;68951;53.130;18.104;2023-09-12T05:24:01;16.48;72.90
79494;SHT31;68951;53.130;18.104;2023-09-12T05:26:28;16.54;72.90
79494;SHT31;68951;53.130;18.104;2023-09-12T05:28:55;16.60;72.90
79494;SHT31;68951;53.130;18.104;2023-09-12T05:31:21;16.69;72.90
79494;SHT31;68951;53.130;18.104;2023-09-12T05:33:48;16.76;72.84
79494;SHT31;68951;53.130;18.104;2023-09-12T05:36:15;16.84;72.84
79494;SHT31;68951;53.130;18.104;2023-09-12T05:38:42;16.89;72.81
79494;SHT31;68951;53.130;18.104;2023-09-12T05:41:09;16.94;72.80
79494;SHT31;68951;53.130;18.104;2023-09-12T05:43:35;16.98;72.83
79494;SHT31;68951;53.130;18.104;2023-09-12T05:46:02;17.04;72.89
79494;SHT31;68951;53.130;18.104;2023-09-12T05:48:29;17.13;72.88
79494;SHT31;68951;53.130;18.104;2023-09-12T05:50:56;17.23;72.90
79494;SHT31;68951;53.130;18.104;2023-09-12T05:53:23;17.34;72.90
79494;SHT31;68951;53.130;18.104;2023-09-12T05:55:50;17.44;72.89
79494;SHT31;68951;53.130;18.104;2023-09-12T05:58:17;17.54;72.87
79494;SHT31;68951;53.130;18.104;2023-09-12T06:00:43;17.64;72.85
79494;SHT31;68951;53.130;18.104;2023-09-12T06:03:13;17.70;72.86
79494;SHT31;68951;53.130;18.104;2023-09-12T06:05:41;17.77;72.90
79494;SHT31;68951;53.130;18.104;2023-09-12T06:08:08;17.86;72.94
79494;SHT31;68951;53.130;18.104;2023-09-12T06:10:36;17.95;72.99
79494;SHT31;68951;53.130;18.104;2023-09-12T06:13:03;18.06;73.00
79494;SHT31;68951;53.130;18.104;2023-09-12T06:15:30;18.17;73.00
79494;SHT31;68951;53.130;18.104;2023-09-12T06:17:56;18.27;72.98
79494;SHT31;68951;53.130;18.104;2023-09-12T06:20:23;18.40;72.90
79494;SHT31;68951;53.130;18.104;2023-09-12T06:22:50;18.54;72.79
79494;SHT31;68951;53.130;18.104;2023-09-12T06:25:17;18.66;72.71
79494;SHT31;68951;53.130;18.104;2023-09-12T06:27:44;18.78;72.56
79494;SHT31;68951;53.130;18.104;2023-09-12T06:30:11;18.87;72.43
79494;SHT31;68951;53.130;18.104;2023-09-12T06:32:39;18.98;72.34
79494;SHT31;68951;53.130;18.104;2023-09-12T06:35:06;19.09;72.21
79494;SHT31;68951;53.130;18.104;2023-09-12T06:37:34;19.19;72.05
79494;SHT31;68951;53.130;18.104;2023-09-12T06:40:00;19.29;71.93
79494;SHT31;68951;53.130;18.104;2023-09-12T06:42:27;19.38;71.80
79494;SHT31;68951;53.130;18.104;2023-09-12T06:44:54;19.51;71.67
79494;SHT31;68951;53.130;18.104;2023-09-12T06:47:21;19.65;71.57
79494;SHT31;68951;53.130;18.104;2023-09-12T06:49:47;19.79;71.43
79494;SHT31;68951;53.130;18.104;2023-09-12T06:52:14;19.90;71.26
79494;SHT31;68951;53.130;18.104;2023-09-12T06:54:41;20.00;71.18
79494;SHT31;68951;53.130;18.104;2023-09-12T06:57:08;20.12;71.03
79494;SHT31;68951;53.130;18.104;2023-09-12T06:59:35;20.25;70.85
79494;SHT31;68951;53.130;18.104;2023-09-12T07:02:01;20.35;70.71
79494;SHT31;68951;53.130;18.104;2023-09-12T07:04:29;20.47;70.61
79494;SHT31;68951;53.130;18.104;2023-09-12T07:06:56;20.58;70.55
79494;SHT31;68951;53.130;18.104;2023-09-12T07:09:23;20.69;70.45
79494;SHT31;68951;53.130;18.104;2023-09-12T07:11:50;20.80;70.30
79494;SHT31;68951;53.130;18.104;2023-09-12T07:14:18;20.91;70.16
79494;SHT31;68951;53.130;18.104;2023-09-12T07:16:45;21.02;69.99
79494;SHT31;68951;53.130;18.104;2023-09-12T07:19:12;21.12;69.88
79494;SHT31;68951;53.130;18.104;2023-09-12T07:21:39;21.25;69.78
79494;SHT31;68951;53.130;18.104;2023-09-12T07:24:05;21.35;69.70
79494;SHT31;68951;53.130;18.104;2023-09-12T07:26:33;21.43;69.70
79494;SHT31;68951;53.130;18.104;2023-09-12T07:29:00;21.50;69.56
79494;SHT31;68951;53.130;18.104;2023-09-12T07:31:29;21.60;69.40
79494;SHT31;68951;53.130;18.104;2023-09-12T07:33:55;21.72;69.21
79494;SHT31;68951;53.130;18.104;2023-09-12T07:36:22;21.85;69.04
79494;SHT31;68951;53.130;18.104;2023-09-12T07:38:49;21.96;68.93
79494;SHT31;68951;53.130;18.104;2023-09-12T07:41:17;22.07;68.77
79494;SHT31;68951;53.130;18.104;2023-09-12T07:43:45;22.20;68.68
79494;SHT31;68951;53.130;18.104;2023-09-12T07:46:12;22.34;68.55
79494;SHT31;68951;53.130;18.104;2023-09-12T07:48:39;22.45;68.33
79494;SHT31;68951;53.130;18.104;2023-09-12T07:51:11;22.55;68.09
79494;SHT31;68951;53.130;18.104;2023-09-12T07:53:44;22.65;67.87
79494;SHT31;68951;53.130;18.104;2023-09-12T07:56:11;22.75;67.69
79494;SHT31;68951;53.130;18.104;2023-09-12T07:58:38;22.86;67.44
79494;SHT31;68951;53.130;18.104;2023-09-12T08:01:08;22.96;67.17
79494;SHT31;68951;53.130;18.104;2023-09-12T08:03:36;23.10;66.92
79494;SHT31;68951;53.130;18.104;2023-09-12T08:06:06;23.23;66.53
79494;SHT31;68951;53.130;18.104;2023-09-12T08:08:33;23.35;66.21
79494;SHT31;68951;53.130;18.104;2023-09-12T08:11:00;23.49;65.91
79494;SHT31;68951;53.130;18.104;2023-09-12T08:13:28;23.63;65.60
79494;SHT31;68951;53.130;18.104;2023-09-12T08:15:56;23.78;65.33
79494;SHT31;68951;53.130;18.104;2023-09-12T08:18:25;23.91;65.05
79494;SHT31;68951;53.130;18.104;2023-09-12T08:20:57;24.04;64.68
79494;SHT31;68951;53.130;18.104;2023-09-12T08:23:24;24.16;64.35
79494;SHT31;68951;53.130;18.104;2023-09-12T08:25:51;24.33;63.94
79494;SHT31;68951;53.130;18.104;2023-09-12T08:28:18;24.49;63.28
79494;SHT31;68951;53.130;18.104;2023-09-12T08:30:45;24.64;62.86
79494;SHT31;68951;53.130;18.104;2023-09-12T08:33:15;24.79;62.29
79494;SHT31;68951;53.130;18.104;2023-09-12T08:35:42;24.94;61.51
79494;SHT31;68951;53.130;18.104;2023-09-12T08:38:09;25.13;60.77
79494;SHT31;68951;53.130;18.104;2023-09-12T08:40:36;25.32;60.16
79494;SHT31;68951;53.130;18.104;2023-09-12T08:43:04;25.48;59.63
79494;SHT31;68951;53.130;18.104;2023-09-12T08:45:31;25.64;59.20
79494;SHT31;68951;53.130;18.104;2023-09-12T08:47:59;25.84;58.70
79494;SHT31;68951;53.130;18.104;2023-09-12T08:50:29;26.01;58.23
79494;SHT31;68951;53.130;18.104;2023-09-12T08:52:59;26.22;57.88
79494;SHT31;68951;53.130;18.104;2023-09-12T08:55:26;26.42;57.11
79494;SHT31;68951;53.130;18.104;2023-09-12T08:57:53;26.63;56.50
79494;SHT31;68951;53.130;18.104;2023-09-12T09:00:24;26.77;55.81
79494;SHT31;68951;53.130;18.104;2023-09-12T09:02:53;26.89;55.23
79494;SHT31;68951;53.130;18.104;2023-09-12T09:05:20;27.04;54.86
79494;SHT31;68951;53.130;18.104;2023-09-12T09:07:49;27.18;54.41
79494;SHT31;68951;53.130;18.104;2023-09-12T09:10:18;27.38;53.88
79494;SHT31;68951;53.130;18.104;2023-09-12T09:12:50;27.56;53.29
79494;SHT31;68951;53.130;18.104;2023-09-12T09:15:29;27.72;52.89
79494;SHT31;68951;53.130;18.104;2023-09-12T09:17:57;27.90;52.46
79494;SHT31;68951;53.130;18.104;2023-09-12T09:20:33;28.16;52.12
79494;SHT31;68951;53.130;18.104;2023-09-12T09:23:02;28.36;51.16
79494;SHT31;68951;53.130;18.104;2023-09-12T09:25:32;28.51;50.30
79494;SHT31;68951;53.130;18.104;2023-09-12T09:28:03;28.74;49.86
79494;SHT31;68951;53.130;18.104;2023-09-12T09:30:38;28.92;49.36
79494;SHT31;68951;53.130;18.104;2023-09-12T09:33:11;29.05;48.60
79494;SHT31;68951;53.130;18.104;2023-09-12T09:35:46;29.21;47.88
79494;SHT31;68951;53.130;18.104;2023-09-12T09:38:15;29.36;47.34
79494;SHT31;68951;53.130;18.104;2023-09-12T09:40:46;29.57;47.06
79494;SHT31;68951;53.130;18.104;2023-09-12T09:43:18;29.74;46.33
79494;SHT31;68951;53.130;18.104;2023-09-12T09:45:47;29.90;45.79
79494;SHT31;68951;53.130;18.104;2023-09-12T09:48:22;30.25;45.70
79494;SHT31;68951;53.130;18.104;2023-09-12T09:50:53;30.55;45.14
79494;SHT31;68951;53.130;18.104;2023-09-12T09:53:29;30.82;44.62
79494;SHT31;68951;53.130;18.104;2023-09-12T09:56:08;31.01;43.86
79494;SHT31;68951;53.130;18.104;2023-09-12T09:58:46;31.17;43.01
79494;SHT31;68951;53.130;18.104;2023-09-12T10:01:27;31.52;42.74
79494;SHT31;68951;53.130;18.104;2023-09-12T10:03:57;31.80;42.13
79494;SHT31;68951;53.130;18.104;2023-09-12T10:06:27;32.00;41.59
79494;SHT31;68951;53.130;18.104;2023-09-12T10:08:56;32.41;41.26
79494;SHT31;68951;53.130;18.104;2023-09-12T10:11:28;32.71;40.74
79494;SHT31;68951;53.130;18.104;2023-09-12T10:14:00;32.62;39.79
79494;SHT31;68951;53.130;18.104;2023-09-12T10:16:31;32.70;39.63
79494;SHT31;68951;53.130;18.104;2023-09-12T10:19:15;33.18;39.49
79494;SHT31;68951;53.130;18.104;2023-09-12T10:21:55;33.62;38.91
79494;SHT31;68951;53.130;18.104;2023-09-12T10:24:49;34.16;38.36
79494;SHT31;68951;53.130;18.104;2023-09-12T10:27:18;34.67;37.80
79494;SHT31;68951;53.130;18.104;2023-09-12T10:29:46;34.95;37.31
79494;SHT31;68951;53.130;18.104;2023-09-12T10:32:16;35.18;36.91
79494;SHT31;68951;53.130;18.104;2023-09-12T10:34:46;35.45;36.41
79494;SHT31;68951;53.130;18.104;2023-09-12T10:37:16;35.29;35.77
79494;SHT31;68951;53.130;18.104;2023-09-12T10:39:44;35.34;35.72
79494;SHT31;68951;53.130;18.104;2023-09-12T10:42:12;35.56;35.31
79494;SHT31;68951;53.130;18.104;2023-09-12T10:44:40;35.49;35.10
79494;SHT31;68951;53.130;18.104;2023-09-12T10:47:07;35.18;34.54
79494;SHT31;68951;53.130;18.104;2023-09-12T10:49:35;34.94;34.51
79494;SHT31;68951;53.130;18.104;2023-09-12T10:52:04;34.99;34.48
79494;SHT31;68951;53.130;18.104;2023-09-12T10:54:38;35.04;34.41
79494;SHT31;68951;53.130;18.104;2023-09-12T10:57:07;34.97;34.21
79494;SHT31;68951;53.130;18.104;2023-09-12T10:59:51;35.12;34.23
79494;SHT31;68951;53.130;18.104;2023-09-12T11:02:31;35.44;33.98
79494;SHT31;68951;53.130;18.104;2023-09-12T11:05:00;35.41;33.54
79494;SHT31;68951;53.130;18.104;2023-09-12T11:12:51;35.74;33.28
79494;SHT31;68951;53.130;18.104;2023-09-12T11:15:26;36.34;33.07
79494;SHT31;68951;53.130;18.104;2023-09-12T11:18:04;36.44;32.51
79494;SHT31;68951;53.130;18.104;2023-09-12T11:23:29;37.33;32.05
79494;SHT31;68951;53.130;18.104;2023-09-12T11:26:04;37.23;31.86
79494;SHT31;68951;53.130;18.104;2023-09-12T11:28:33;37.77;31.68
79494;SHT31;68951;53.130;18.104;2023-09-12T11:31:00;37.96;31.22
79494;SHT31;68951;53.130;18.104;2023-09-12T11:33:27;37.73;30.67
79494;SHT31;68951;53.130;18.104;2023-09-12T11:35:55;37.11;30.44
79494;SHT31;68951;53.130;18.104;2023-09-12T11:38:30;36.68;30.65
79494;SHT31;68951;53.130;18.104;2023-09-12T11:40:58;36.65;30.79
79494;SHT31;68951;53.130;18.104;2023-09-12T11:43:28;36.54;30.73
79494;SHT31;68951;53.130;18.104;2023-09-12T11:45:55;37.02;30.86
79494;SHT31;68951;53.130;18.104;2023-09-12T11:48:23;37.89;30.71
79494;SHT31;68951;53.130;18.104;2023-09-12T11:50:54;38.55;30.39
79494;SHT31;68951;53.130;18.104;2023-09-12T11:53:24;39.18;30.02
79494;SHT31;68951;53.130;18.104;2023-09-12T11:55:59;39.48;29.50
79494;SHT31;68951;53.130;18.104;2023-09-12T11:58:27;38.91;29.20
79494;SHT31;68951;53.130;18.104;2023-09-12T12:00:55;38.28;29.09
79494;SHT31;68951;53.130;18.104;2023-09-12T12:03:25;38.40;29.37
79494;SHT31;68951;53.130;18.104;2023-09-12T12:05:54;38.58;28.81
79494;SHT31;68951;53.130;18.104;2023-09-12T12:08:22;38.27;28.69
79494;SHT31;68951;53.130;18.104;2023-09-12T12:10:52;38.22;28.77
79494;SHT31;68951;53.130;18.104;2023-09-12T12:13:21;38.18;28.76
79494;SHT31;68951;53.130;18.104;2023-09-12T12:15:48;38.36;28.77
79494;SHT31;68951;53.130;18.104;2023-09-12T12:18:15;38.98;28.73
79494;SHT31;68951;53.130;18.104;2023-09-12T12:20:42;39.50;28.44
79494;SHT31;68951;53.130;18.104;2023-09-12T12:23:09;39.39;27.92
79494;SHT31;68951;53.130;18.104;2023-09-12T12:25:37;39.15;27.48
79494;SHT31;68951;53.130;18.104;2023-09-12T12:28:04;38.65;27.26
79494;SHT31;68951;53.130;18.104;2023-09-12T12:30:32;38.67;27.39
79494;SHT31;68951;53.130;18.104;2023-09-12T12:33:01;38.82;27.23
79494;SHT31;68951;53.130;18.104;2023-09-12T12:35:34;38.50;27.10
79494;SHT31;68951;53.130;18.104;2023-09-12T12:38:03;38.29;27.34
79494;SHT31;68951;53.130;18.104;2023-09-12T12:40:31;38.50;27.28
79494;SHT31;68951;53.130;18.104;2023-09-12T12:42:58;38.13;27.13
79494;SHT31;68951;53.130;18.104;2023-09-12T12:45:25;38.17;27.33
79494;SHT31;68951;53.130;18.104;2023-09-12T12:47:54;38.04;27.18
79494;SHT31;68951;53.130;18.104;2023-09-12T12:50:26;37.63;27.19
79494;SHT31;68951;53.130;18.104;2023-09-12T12:52:53;37.45;27.50
79494;SHT31;68951;53.130;18.104;2023-09-12T12:55:20;37.33;27.62
79494;SHT31;68951;53.130;18.104;2023-09-12T12:57:52;37.30;27.81
79494;SHT31;68951;53.130;18.104;2023-09-12T13:00:19;37.26;27.83
79494;SHT31;68951;53.130;18.104;2023-09-12T13:02:47;37.36;27.96
79494;SHT31;68951;53.130;18.104;2023-09-12T13:05:21;37.92;27.89
79494;SHT31;68951;53.130;18.104;2023-09-12T13:07:51;38.32;27.78
79494;SHT31;68951;53.130;18.104;2023-09-12T13:10:19;38.27;27.54
79494;SHT31;68951;53.130;18.104;2023-09-12T13:12:47;38.15;27.47
79494;SHT31;68951;53.130;18.104;2023-09-12T13:15:15;38.19;27.37
79494;SHT31;68951;53.130;18.104;2023-09-12T13:17:43;37.97;27.23
79494;SHT31;68951;53.130;18.104;2023-09-12T13:20:11;37.87;27.23
79494;SHT31;68951;53.130;18.104;2023-09-12T13:22:38;37.84;27.10
79494;SHT31;68951;53.130;18.104;2023-09-12T13:25:05;38.30;27.13
79494;SHT31;68951;53.130;18.104;2023-09-12T13:27:33;39.09;26.94
79494;SHT31;68951;53.130;18.104;2023-09-12T13:30:01;39.73;26.72
79494;SHT31;68951;53.130;18.104;2023-09-12T13:32:30;40.08;26.34
79494;SHT31;68951;53.130;18.104;2023-09-12T13:34:57;40.23;25.88
79494;SHT31;68951;53.130;18.104;2023-09-12T13:37:23;40.40;25.71
79494;SHT31;68951;53.130;18.104;2023-09-12T13:39:50;40.17;25.41
79494;SHT31;68951;53.130;18.104;2023-09-12T13:42:17;40.16;25.44
79494;SHT31;68951;53.130;18.104;2023-09-12T13:44:48;39.69;25.24
79494;SHT31;68951;53.130;18.104;2023-09-12T13:47:16;39.30;25.29
79494;SHT31;68951;53.130;18.104;2023-09-12T13:49:50;39.06;25.38
79494;SHT31;68951;53.130;18.104;2023-09-12T13:52:22;38.96;25.40
79494;SHT31;68951;53.130;18.104;2023-09-12T13:54:49;38.92;25.43
79494;SHT31;68951;53.130;18.104;2023-09-12T13:57:16;38.53;25.36
79494;SHT31;68951;53.130;18.104;2023-09-12T13:59:43;38.05;25.47
79494;SHT31;68951;53.130;18.104;2023-09-12T14:02:10;37.94;25.59
79494;SHT31;68951;53.130;18.104;2023-09-12T14:04:38;38.06;25.68
79494;SHT31;68951;53.130;18.104;2023-09-12T14:07:06;38.13;25.66
79494;SHT31;68951;53.130;18.104;2023-09-12T14:09:33;37.95;25.61
79494;SHT31;68951;53.130;18.104;2023-09-12T14:12:00;37.66;25.88
79494;SHT31;68951;53.130;18.104;2023-09-12T14:14:27;37.75;26.06
79494;SHT31;68951;53.130;18.104;2023-09-12T14:16:53;38.17;26.04
79494;SHT31;68951;53.130;18.104;2023-09-12T14:19:20;38.15;25.98
79494;SHT31;68951;53.130;18.104;2023-09-12T14:21:47;38.17;26.05
79494;SHT31;68951;53.130;18.104;2023-09-12T14:24:14;38.01;26.06
79494;SHT31;68951;53.130;18.104;2023-09-12T14:26:41;37.66;26.19
79494;SHT31;68951;53.130;18.104;2023-09-12T14:29:08;37.49;26.38
79494;SHT31;68951;53.130;18.104;2023-09-12T14:31:36;37.67;26.61
79494;SHT31;68951;53.130;18.104;2023-09-12T14:34:04;37.97;26.51
79494;SHT31;68951;53.130;18.104;2023-09-12T14:36:32;38.00;26.40
79494;SHT31;68951;53.130;18.104;2023-09-12T14:38:59;37.72;26.39
79494;SHT31;68951;53.130;18.104;2023-09-12T14:41:26;37.41;26.56
79494;SHT31;68951;53.130;18.104;2023-09-12T14:43:53;37.06;26.64
79494;SHT31;68951;53.130;18.104;2023-09-12T14:46:19;36.83;26.73
79494;SHT31;68951;53.130;18.104;2023-09-12T14:48:46;36.73;26.86
79494;SHT31;68951;53.130;18.104;2023-09-12T14:51:13;36.45;26.86
79494;SHT31;68951;53.130;18.104;2023-09-12T14:53:40;36.12;26.98
79494;SHT31;68951;53.130;18.104;2023-09-12T14:56:10;36.10;27.11
79494;SHT31;68951;53.130;18.104;2023-09-12T14:58:37;35.90;27.19
79494;SHT31;68951;53.130;18.104;2023-09-12T15:01:04;35.54;27.37
79494;SHT31;68951;53.130;18.104;2023-09-12T15:03:31;35.16;27.56
79494;SHT31;68951;53.130;18.104;2023-09-12T15:06:05;34.91;27.81
79494;SHT31;68951;53.130;18.104;2023-09-12T15:08:33;34.69;28.01
79494;SHT31;68951;53.130;18.104;2023-09-12T15:11:02;34.40;28.29
79494;SHT31;68951;53.130;18.104;2023-09-12T15:13:30;34.18;28.56
79494;SHT31;68951;53.130;18.104;2023-09-12T15:15:57;34.02;28.82
79494;SHT31;68951;53.130;18.104;2023-09-12T15:18:24;33.71;29.12
79494;SHT31;68951;53.130;18.104;2023-09-12T15:20:51;33.47;29.37
79494;SHT31;68951;53.130;18.104;2023-09-12T15:23:19;33.19;29.58
79494;SHT31;68951;53.130;18.104;2023-09-12T15:25:49;32.91;29.81
79494;SHT31;68951;53.130;18.104;2023-09-12T15:28:17;32.67;30.08
79494;SHT31;68951;53.130;18.104;2023-09-12T15:30:44;32.53;30.49
79494;SHT31;68951;53.130;18.104;2023-09-12T15:33:11;32.22;32.06